Terminal Aerodrome Forecast
Issued by NWS Sterling, VA

Home | Current Version | Previous Version | Text Only | Print | Product List | Glossary On
Versions: 1 2 3 4 5 6 7 8 9 10 11 12 13 14 15 16 17 18 19
000
FTUS41 KLWX 281129
TAFMRB
TAF
KMRB 281129Z 2812/2912 00000KT P6SM SKC
     FM281800 34005KT P6SM VCTS SCT050CB BKN090
     FM282300 VRB04KT P6SM SCT080
     FM290800 VRB03KT 5SM BR BKN080=

USA.gov is the U.S. government's official web portal to all federal, state and local government web resources and services.